Aeroporto :
LOGIN :

Iscrizione | Disclaimer

   EN    FR    IT 

 










Sommario :    VFR   VFR Marginale   IFR   IFR Intensivo   IFR Molto Intensivo
Visibilità : 
Base nubi : 
>= 8 km
>= 3000ft
5 / 8 km
1000 / 3000 ft
1500m / 5 km
500 / 1000 ft
800 / 1500m
200 / 500 ft
< 800m
< 200 ft
Simboli :   Temporali  Nebbia  Neve Forte  Precipitazioni Forti  Vento > 20 kt
SIGMETs :   Varie  Temporali  Ghiacco  Turbolenza  Onda orograficha  Ceneri Vulcaniche






- Altitudine del aeroporto : 42 ft
- Codice IATA : KGD


UMKK - Khrabrava - Kaliningrad

ULTIMO METAR :
  • 021630Z 23007MPS 9999 BKN033 08/01 Q1002 R24/CLRD95 NOSIG RMK QFE750/1001

METARs OBSOLETI :
  • 021600Z 22007MPS 9999 BKN033 08/01 Q1003 R24/CLRD95 NOSIG RMK QFE751/1001
  • 021530Z 22007MPS 9999 BKN031 08/01 Q1003 R24/CLRD95 NOSIG RMK QFE751/1001
  • 021500Z 23008MPS 9999 BKN031 08/01 Q1003 R24/CLRD95 NOSIG RMK QFE751/1002
  • 021430Z 23008G13MPS 9999 BKN029 08/02 Q1003 R24/95D NOSIG RMK QFE751/1002
  • 021400Z 23008G13MPS 9999 BKN025 08/02 Q1004 R24/19//95 NOSIG RMK QFE751/1002
  • 021330Z 23009G15MPS 190V250 9999 BKN024 08/02 Q1004 R24/19//95 NOSIG RMK QFE752/1002

TAF TAF UMKK
Valido dal 02 a 15 ore il 03 a 15 ore UTC


021358Z 0215/0315 24010G17MPS 8000 SCT011 BKN020CB
TEMPO 0215/0218 3100 -SHRA BKN015CB
BECMG 0216/0218 22008G15MPS
BECMG 0219/0221 22012G20MPS
TEMPO 0221/0312 3100 -SHRA FEW004 BKN013CB
BECMG 0223/0301 26012G20MPS



MetMap, La meteo Aeronautica in un colpo d'occhio ! - Copyright ORBIFLY Dicembre 2007 - Disclaimer

ORBIFLY MET'MAP TEAM :

Programmazione e sviluppo : Alexandra Zaïnal
Concezione : Baudouin d'Aumeries
Aiuto per la programmazione : Marc-Olivier Méhu
Supporto tecnico e logistico : Manuel Goepfert
Aiuto per la traduzione : Arnaldo La Scala

Contatto : metmap@orbifly.com




FONTI E CREDITI :

   NOAA